Segeza, Russia
Current Conditions -  °F | °C
As of 6:00 PM on Friday 19 Dec 2014 (Local Time) from ULPB Reporting Station
Snow Showers Snow Showers  
Wind Chill: 30°   Ceiling: NA
Heat Index: 34°   Visibility: 6mi
Dew Point: 32°   Wind: 4mph
Humidity: 93%   Direction: NA
Pressure: 29.21"   Gusts: NA
Location:  63.75°N, 34.35°E
Report Text: ULPB 191500Z AUTO VRB02MPS 9999 -SHSN ////// 01/M00 Q0989
Loading
Personal Weather Stations






























Interactive Weather Map New forecast layout! Learn more

10-Day Weather Forecast

Advertisements
Track Severe Weather on mobile